Time;durP1;ratioP1;P1;durP2;ratioP2;P2;SDS_P1;SDS_P2;PMS_P1;PMS_P2;Temp;Humidity;BMP_temperature;BMP_pressure;BME280_temperature;BME280_humidity;BME280_pressure;Samples;Min_cycle;Max_cycle;Signal;HPM_P1;HPM_P2
2024/01/26 00:01:33;;;;;;;8.13;4.18;;;9.50;99.90;;;;;;4985749;28;20042;-82
2024/01/26 00:03:59;;;;;;;11.48;5.30;;;9.60;99.90;;;;;;4985379;28;20157;-82
2024/01/26 00:06:25;;;;;;;7.10;4.05;;;9.50;99.90;;;;;;4987461;28;20128;-82
2024/01/26 00:08:51;;;;;;;12.00;5.32;;;9.60;99.90;;;;;;4983985;28;20053;-81
2024/01/26 00:11:18;;;;;;;6.72;4.63;;;9.60;99.90;;;;;;5000742;28;20417;-83
2024/01/26 00:13:44;;;;;;;11.23;5.35;;;9.60;99.90;;;;;;4974256;28;20462;-82
2024/01/26 00:16:09;;;;;;;9.20;3.83;;;9.60;99.90;;;;;;4986562;28;20041;-82
2024/01/26 00:18:35;;;;;;;7.40;3.63;;;9.60;99.90;;;;;;4978923;28;20171;-82
2024/01/26 00:21:02;;;;;;;9.95;5.00;;;9.60;99.90;;;;;;4976755;28;20221;-82
2024/01/26 00:23:28;;;;;;;11.93;5.20;;;9.60;99.90;;;;;;4988620;28;20501;-83
2024/01/26 00:25:54;;;;;;;7.97;4.07;;;9.60;99.90;;;;;;4988315;28;20055;-82
2024/01/26 00:28:20;;;;;;;11.43;4.97;;;9.60;99.90;;;;;;4988179;28;20505;-82
2024/01/26 00:30:46;;;;;;;10.57;5.57;;;9.60;99.90;;;;;;4988800;28;20042;-81
2024/01/26 00:33:12;;;;;;;10.63;5.00;;;9.70;99.90;;;;;;4985550;28;20043;-82
2024/01/26 00:35:37;;;;;;;10.27;5.35;;;9.70;99.90;;;;;;4972904;28;20034;-82
2024/01/26 00:38:03;;;;;;;8.15;4.35;;;9.80;99.90;;;;;;4985553;28;20040;-81
2024/01/26 00:40:29;;;;;;;7.32;3.42;;;9.80;99.90;;;;;;4978033;28;20474;-82
2024/01/26 00:42:54;;;;;;;8.07;4.13;;;9.70;99.90;;;;;;4983473;28;20042;-82
2024/01/26 00:45:20;;;;;;;8.82;4.15;;;9.80;99.90;;;;;;4986702;28;20045;-82
2024/01/26 00:47:46;;;;;;;8.45;5.05;;;9.70;99.90;;;;;;4964928;28;20042;-82
2024/01/26 00:50:11;;;;;;;9.60;4.07;;;9.80;99.90;;;;;;4985974;28;20417;-82
2024/01/26 00:52:37;;;;;;;6.22;4.18;;;9.80;99.90;;;;;;4981462;28;20065;-82
2024/01/26 00:55:03;;;;;;;6.93;4.03;;;9.80;99.90;;;;;;4987627;28;20117;-82
2024/01/26 00:57:29;;;;;;;8.95;4.63;;;9.80;99.90;;;;;;4967369;28;20043;-82
2024/01/26 00:59:55;;;;;;;9.75;4.45;;;9.80;99.90;;;;;;4964315;28;20054;-82
2024/01/26 01:02:21;;;;;;;6.82;4.25;;;9.80;99.90;;;;;;4979827;28;20237;-81
2024/01/26 01:04:47;;;;;;;10.07;5.10;;;9.90;99.90;;;;;;4986238;28;20045;-81
2024/01/26 01:07:13;;;;;;;8.32;4.35;;;9.90;99.90;;;;;;4975594;28;20038;-81
2024/01/26 01:09:40;;;;;;;7.78;4.60;;;9.90;99.90;;;;;;4960033;28;20046;-80
2024/01/26 01:12:07;;;;;;;8.13;4.47;;;10.00;99.90;;;;;;4974905;28;20050;-81
2024/01/26 01:14:32;;;;;;;9.43;4.72;;;10.00;99.90;;;;;;4962592;28;20089;-80
2024/01/26 01:16:58;;;;;;;6.70;3.72;;;10.00;99.90;;;;;;4983363;28;20121;-81
2024/01/26 01:19:24;;;;;;;8.93;4.95;;;10.00;99.90;;;;;;4980959;28;20034;-81
2024/01/26 01:21:50;;;;;;;8.85;4.97;;;10.10;99.90;;;;;;4979816;28;20069;-79
2024/01/26 01:24:15;;;;;;;8.15;3.90;;;10.10;99.90;;;;;;4970220;28;20523;-81
2024/01/26 01:26:41;;;;;;;6.47;3.58;;;10.10;99.90;;;;;;4981419;28;20038;-81
2024/01/26 01:29:07;;;;;;;11.18;5.47;;;10.10;99.90;;;;;;4979268;28;20489;-81
2024/01/26 01:31:33;;;;;;;6.45;3.65;;;10.10;99.90;;;;;;4988668;28;20485;-82
2024/01/26 01:33:58;;;;;;;7.65;3.85;;;10.10;99.90;;;;;;4967614;28;20046;-81
2024/01/26 01:36:24;;;;;;;9.32;4.95;;;10.10;99.90;;;;;;4979024;28;20081;-81
2024/01/26 01:38:50;;;;;;;10.80;5.10;;;10.10;99.90;;;;;;4988547;28;20034;-81
2024/01/26 01:41:15;;;;;;;13.00;5.38;;;10.10;99.90;;;;;;4964814;28;20176;-81
2024/01/26 01:43:41;;;;;;;6.70;3.45;;;10.20;99.90;;;;;;4980825;28;20042;-82
2024/01/26 01:46:08;;;;;;;12.40;5.40;;;10.20;99.90;;;;;;4983812;28;20042;-82
2024/01/26 01:48:34;;;;;;;7.85;4.20;;;10.20;99.90;;;;;;4968710;28;20081;-81
2024/01/26 01:51:00;;;;;;;6.75;3.97;;;10.20;99.90;;;;;;4957724;28;20077;-82
2024/01/26 01:53:28;;;;;;;7.22;5.03;;;10.20;99.90;;;;;;4978300;28;20464;-82
2024/01/26 01:55:56;;;;;;;8.85;5.25;;;10.20;99.90;;;;;;4977524;28;20046;-83
2024/01/26 01:58:22;;;;;;;7.13;3.83;;;10.20;99.90;;;;;;4987909;28;20054;-83
2024/01/26 02:00:48;;;;;;;6.78;3.83;;;10.20;99.90;;;;;;4981134;28;20130;-83
2024/01/26 02:03:14;;;;;;;4.88;3.15;;;10.20;99.90;;;;;;4972424;28;20049;-82
2024/01/26 02:05:40;;;;;;;7.47;3.75;;;10.20;99.90;;;;;;4954216;28;20086;-83
2024/01/26 02:08:05;;;;;;;11.93;3.45;;;10.30;99.90;;;;;;4980542;28;20042;-83
2024/01/26 02:10:31;;;;;;;8.30;4.10;;;10.20;99.90;;;;;;4979069;28;20100;-83
2024/01/26 02:12:58;;;;;;;5.05;3.03;;;10.20;99.90;;;;;;4979156;28;20463;-84
2024/01/26 02:15:23;;;;;;;4.80;3.13;;;10.20;99.90;;;;;;4982735;28;20049;-83
2024/01/26 02:17:49;;;;;;;6.47;3.33;;;10.30;99.90;;;;;;4981874;28;20504;-84
2024/01/26 02:20:15;;;;;;;6.15;3.17;;;10.30;99.90;;;;;;4982812;28;20153;-83
2024/01/26 02:22:40;;;;;;;9.00;4.63;;;10.30;99.90;;;;;;4979693;28;20493;-84
2024/01/26 02:25:07;;;;;;;6.72;3.65;;;10.30;99.90;;;;;;4986618;28;20141;-84
2024/01/26 02:27:35;;;;;;;5.88;2.53;;;10.30;99.90;;;;;;4947750;28;20129;-84
2024/01/26 02:30:01;;;;;;;7.30;3.85;;;10.30;99.90;;;;;;4985203;28;20047;-83
2024/01/26 02:32:26;;;;;;;5.18;2.85;;;10.30;99.90;;;;;;4981767;28;20128;-84
2024/01/26 02:34:52;;;;;;;3.50;2.28;;;10.30;99.90;;;;;;4983794;28;20086;-85
2024/01/26 02:37:18;;;;;;;4.95;2.42;;;10.30;99.90;;;;;;4983132;28;20039;-84
2024/01/26 02:39:43;;;;;;;5.28;2.50;;;10.30;99.90;;;;;;4982063;28;20035;-83
2024/01/26 02:42:09;;;;;;;7.32;4.03;;;10.30;99.90;;;;;;4965991;28;20042;-84
2024/01/26 02:44:35;;;;;;;5.35;3.00;;;10.30;99.90;;;;;;4971646;28;20042;-84
2024/01/26 02:47:00;;;;;;;8.13;4.05;;;10.30;99.90;;;;;;4966097;28;20399;-83
2024/01/26 02:49:27;;;;;;;5.00;2.83;;;10.30;99.90;;;;;;4962909;28;20083;-85
2024/01/26 02:51:53;;;;;;;5.22;2.65;;;10.30;99.90;;;;;;4981405;28;20081;-83
2024/01/26 02:54:19;;;;;;;8.25;3.10;;;10.30;99.90;;;;;;4965646;28;20498;-85
2024/01/26 02:56:44;;;;;;;7.70;3.28;;;10.30;99.90;;;;;;4984176;28;20038;-83
2024/01/26 02:59:10;;;;;;;5.10;2.40;;;10.30;99.90;;;;;;4978418;28;20047;-83
2024/01/26 03:01:36;;;;;;;6.47;3.50;;;10.30;99.90;;;;;;4982509;28;20042;-84
2024/01/26 03:04:02;;;;;;;5.90;3.55;;;10.30;99.90;;;;;;4981564;28;20089;-85
2024/01/26 03:06:27;;;;;;;6.38;3.50;;;10.40;99.90;;;;;;4972771;28;20042;-86
2024/01/26 03:08:53;;;;;;;5.18;2.95;;;10.30;99.90;;;;;;4978457;28;20078;-83
2024/01/26 03:11:18;;;;;;;5.38;3.17;;;10.40;99.90;;;;;;4969249;28;20072;-86
2024/01/26 03:13:44;;;;;;;5.22;3.53;;;10.30;99.90;;;;;;4965436;28;20045;-85
2024/01/26 03:16:10;;;;;;;7.20;2.90;;;10.40;99.90;;;;;;4980869;28;20038;-87
2024/01/26 03:18:36;;;;;;;7.65;3.60;;;10.40;99.90;;;;;;4986534;28;20035;-85
2024/01/26 03:21:02;;;;;;;5.78;3.25;;;10.40;99.90;;;;;;4975330;28;20425;-85
2024/01/26 03:23:27;;;;;;;4.05;2.75;;;10.30;99.90;;;;;;4981144;28;20046;-85
2024/01/26 03:25:53;;;;;;;6.78;3.70;;;10.40;99.90;;;;;;4965451;28;20085;-84
2024/01/26 03:28:19;;;;;;;4.13;2.42;;;10.40;99.90;;;;;;4978407;28;20053;-85
2024/01/26 03:30:45;;;;;;;6.07;3.88;;;10.40;99.90;;;;;;4978139;28;20041;-84
2024/01/26 03:33:10;;;;;;;5.22;3.60;;;10.40;99.90;;;;;;4980803;28;20043;-85
2024/01/26 03:35:36;;;;;;;5.55;3.20;;;10.40;99.90;;;;;;4969093;28;20478;-85
2024/01/26 03:38:02;;;;;;;4.43;2.78;;;10.40;99.90;;;;;;4980156;28;20461;-86
2024/01/26 03:40:28;;;;;;;5.70;2.95;;;10.40;99.90;;;;;;4963113;28;20049;-86
2024/01/26 03:42:54;;;;;;;5.03;3.45;;;10.40;99.90;;;;;;4956875;28;20050;-85
2024/01/26 03:45:20;;;;;;;4.40;2.85;;;10.40;99.90;;;;;;4974445;28;20097;-85
2024/01/26 03:47:46;;;;;;;5.65;2.95;;;10.50;99.90;;;;;;4978016;28;20039;-85
2024/01/26 03:50:12;;;;;;;4.00;2.28;;;10.50;99.90;;;;;;4979863;28;20069;-85
2024/01/26 03:52:37;;;;;;;4.32;2.35;;;10.50;99.90;;;;;;4986543;28;20106;-86
2024/01/26 03:55:06;;;;;;;4.55;2.63;;;10.50;99.90;;;;;;4954856;28;20042;-86
2024/01/26 03:57:33;;;;;;;5.72;3.22;;;10.50;99.90;;;;;;4986217;28;20466;-86
2024/01/26 03:59:59;;;;;;;4.07;2.75;;;10.50;99.90;;;;;;4966327;28;20081;-86
2024/01/26 04:02:25;;;;;;;5.00;2.67;;;10.50;99.90;;;;;;4980733;28;20532;-83
2024/01/26 04:04:51;;;;;;;6.15;2.67;;;10.50;99.90;;;;;;4983601;28;20038;-86
2024/01/26 04:07:17;;;;;;;4.85;2.95;;;10.60;99.90;;;;;;4983194;28;20030;-86
2024/01/26 04:09:42;;;;;;;4.50;2.35;;;10.50;99.90;;;;;;4963253;28;20573;-85
2024/01/26 04:12:08;;;;;;;3.75;2.33;;;10.60;99.90;;;;;;4988068;28;20125;-86
2024/01/26 04:14:34;;;;;;;3.47;2.45;;;10.60;99.90;;;;;;4980299;28;20093;-83
2024/01/26 04:16:59;;;;;;;2.95;2.05;;;10.60;99.90;;;;;;4965770;28;20177;-87
2024/01/26 04:19:25;;;;;;;4.55;2.55;;;10.60;99.90;;;;;;4982326;28;20038;-86
2024/01/26 04:21:52;;;;;;;3.65;2.25;;;10.60;99.90;;;;;;4980365;28;20042;-83
2024/01/26 04:24:18;;;;;;;6.53;3.17;;;10.60;99.90;;;;;;4981537;28;20074;-86
2024/01/26 04:26:43;;;;;;;4.75;2.63;;;10.60;99.90;;;;;;4990875;28;20054;-86
2024/01/26 04:29:09;;;;;;;4.22;2.10;;;10.70;99.90;;;;;;4989204;28;20042;-87
2024/01/26 04:31:44;;;;;;;4.68;2.63;;;10.70;99.90;;;;;;4967625;28;20466;-86
2024/01/26 04:34:09;;;;;;;;;;;10.70;99.90;;;;;;4982335;28;20125;-87
2024/01/26 04:36:35;;;;;;;6.10;2.83;;;10.70;99.90;;;;;;4970995;28;20397;-85
2024/01/26 04:39:02;;;;;;;4.93;2.58;;;10.70;99.90;;;;;;4967111;28;20042;-86
2024/01/26 04:41:28;;;;;;;9.07;3.60;;;10.70;99.90;;;;;;4981345;28;20405;-86
2024/01/26 04:43:55;;;;;;;7.95;3.28;;;10.70;99.90;;;;;;4985495;28;20050;-87
2024/01/26 04:46:21;;;;;;;6.43;2.90;;;10.80;99.90;;;;;;4987237;28;20038;-87
2024/01/26 04:48:46;;;;;;;5.07;2.65;;;10.80;99.90;;;;;;4985750;28;20045;-85
2024/01/26 04:51:12;;;;;;;4.70;3.40;;;10.80;99.90;;;;;;4985931;28;20030;-84
2024/01/26 04:53:38;;;;;;;7.65;3.22;;;10.70;99.90;;;;;;4985778;28;20066;-88
2024/01/26 04:56:03;;;;;;;6.68;2.88;;;10.90;99.90;;;;;;4981062;28;20078;-86
2024/01/26 04:58:29;;;;;;;4.30;2.42;;;10.80;99.90;;;;;;4980221;28;20061;-87
2024/01/26 05:00:55;;;;;;;4.50;2.63;;;10.90;99.90;;;;;;4979930;28;20043;-80
2024/01/26 05:03:21;;;;;;;3.88;2.63;;;10.90;99.90;;;;;;4965061;28;20406;-88
2024/01/26 05:05:46;;;;;;;4.32;2.83;;;10.90;99.90;;;;;;4968321;28;20043;-84
2024/01/26 05:08:12;;;;;;;4.25;2.70;;;10.90;99.90;;;;;;4972841;28;20097;-85
2024/01/26 05:10:38;;;;;;;4.00;2.88;;;10.90;99.90;;;;;;4979218;28;20066;-87
2024/01/26 05:13:04;;;;;;;5.15;2.85;;;11.00;99.90;;;;;;4984040;28;20046;-85
2024/01/26 05:15:29;;;;;;;5.72;3.45;;;11.00;99.90;;;;;;4984070;28;20102;-87
2024/01/26 05:17:55;;;;;;;5.35;3.55;;;11.10;99.90;;;;;;4976994;28;20573;-83
2024/01/26 05:20:22;;;;;;;5.68;3.60;;;11.10;99.90;;;;;;4957589;28;20042;-86
2024/01/26 05:22:48;;;;;;;5.93;3.33;;;11.10;99.90;;;;;;4961149;28;20073;-85
2024/01/26 05:25:13;;;;;;;6.90;3.67;;;11.20;99.90;;;;;;4985400;28;20375;-84
2024/01/26 05:27:41;;;;;;;4.97;2.83;;;11.20;99.90;;;;;;4960508;28;20109;-85
2024/01/26 05:30:07;;;;;;;5.20;2.85;;;11.20;99.90;;;;;;4986833;28;20077;-87
2024/01/26 05:32:33;;;;;;;4.53;2.30;;;11.20;99.90;;;;;;4981900;28;20461;-83
2024/01/26 05:34:59;;;;;;;5.13;3.33;;;11.20;99.90;;;;;;4986789;28;20050;-86
2024/01/26 05:37:24;;;;;;;3.97;3.08;;;11.20;99.90;;;;;;4972506;28;20050;-87
2024/01/26 05:39:50;;;;;;;6.18;3.03;;;11.30;99.90;;;;;;4981456;28;20088;-87
2024/01/26 05:42:15;;;;;;;6.22;3.80;;;11.30;99.90;;;;;;4981484;28;20081;-81
2024/01/26 05:44:41;;;;;;;4.85;3.17;;;11.20;99.90;;;;;;4978719;28;20042;-86
2024/01/26 05:47:07;;;;;;;4.57;2.63;;;11.30;99.90;;;;;;4983105;28;20049;-84
2024/01/26 05:49:33;;;;;;;6.07;3.13;;;11.30;99.90;;;;;;4984566;28;20493;-83
2024/01/26 05:51:59;;;;;;;6.28;3.00;;;11.30;99.90;;;;;;4985986;28;20081;-78
2024/01/26 05:54:25;;;;;;;4.47;3.05;;;11.30;99.90;;;;;;4979979;28;20066;-84
2024/01/26 05:56:50;;;;;;;3.88;2.35;;;11.20;99.90;;;;;;4988055;28;20049;-85
2024/01/26 05:59:16;;;;;;;7.00;2.97;;;11.20;99.90;;;;;;4975277;28;20047;-85
2024/01/26 06:01:42;;;;;;;9.75;3.40;;;11.20;99.90;;;;;;4987498;28;20395;-85
2024/01/26 06:04:08;;;;;;;3.90;2.30;;;11.20;99.90;;;;;;4975743;28;20042;-85
2024/01/26 06:06:33;;;;;;;5.65;3.15;;;11.20;99.90;;;;;;4949456;28;20038;-86
2024/01/26 06:08:59;;;;;;;7.35;3.00;;;11.20;99.90;;;;;;4964895;28;20054;-81
2024/01/26 06:11:25;;;;;;;4.30;3.17;;;11.30;99.90;;;;;;4978964;28;20057;-81
2024/01/26 06:13:51;;;;;;;6.90;3.63;;;11.20;99.90;;;;;;4985519;28;20121;-80
2024/01/26 06:16:17;;;;;;;4.13;2.58;;;11.20;99.90;;;;;;4955687;28;20357;-80
2024/01/26 06:18:49;;;;;;;7.82;3.47;;;11.30;99.90;;;;;;4982552;28;20074;-82
2024/01/26 06:21:14;;;;;;;3.88;2.80;;;11.20;99.90;;;;;;4987665;28;20482;-82
2024/01/26 06:23:40;;;;;;;3.60;2.65;;;11.20;99.90;;;;;;4990954;28;20038;-81
2024/01/26 06:26:06;;;;;;;4.20;2.60;;;11.20;99.90;;;;;;4981382;28;20105;-82
2024/01/26 06:28:32;;;;;;;6.55;2.65;;;11.20;99.90;;;;;;4983775;28;20065;-83
2024/01/26 06:30:58;;;;;;;4.88;2.38;;;11.20;99.90;;;;;;4977164;28;20043;-81
2024/01/26 06:33:23;;;;;;;3.38;2.50;;;11.20;99.90;;;;;;4980687;28;20499;-80
2024/01/26 06:35:49;;;;;;;2.95;2.38;;;11.20;99.90;;;;;;4964873;28;20053;-80
2024/01/26 06:38:15;;;;;;;3.25;1.98;;;11.20;99.90;;;;;;4973170;28;20046;-79
2024/01/26 06:40:42;;;;;;;9.75;2.67;;;11.20;99.90;;;;;;4966354;28;20521;-77
2024/01/26 06:43:08;;;;;;;3.33;1.83;;;11.20;99.90;;;;;;4978160;28;20046;-76
2024/01/26 06:45:34;;;;;;;2.95;2.50;;;11.20;99.90;;;;;;4967865;28;20490;-77
2024/01/26 06:48:04;;;;;;;2.88;1.75;;;11.20;99.90;;;;;;4971224;28;20047;-78
2024/01/26 06:50:29;;;;;;;4.05;2.03;;;11.20;99.90;;;;;;4963290;28;20082;-76
2024/01/26 06:52:55;;;;;;;3.55;1.73;;;11.20;99.90;;;;;;4963735;28;20080;-76
2024/01/26 06:55:21;;;;;;;3.80;1.73;;;11.20;99.90;;;;;;4978012;28;20034;-76
2024/01/26 06:57:46;;;;;;;2.15;1.35;;;11.30;99.90;;;;;;4964255;28;20105;-76
2024/01/26 07:00:13;;;;;;;2.45;1.35;;;11.30;99.90;;;;;;4979728;28;20069;-76
2024/01/26 07:02:38;;;;;;;2.13;1.20;;;11.20;99.90;;;;;;4978294;28;20030;-74
2024/01/26 07:05:05;;;;;;;2.53;1.15;;;11.30;99.90;;;;;;4982505;28;20042;-73
2024/01/26 07:07:30;;;;;;;1.35;1.00;;;11.20;99.90;;;;;;4981401;28;20038;-76
2024/01/26 07:09:56;;;;;;;2.92;1.08;;;11.30;99.90;;;;;;4984683;28;20046;-76
2024/01/26 07:12:22;;;;;;;4.57;1.35;;;11.30;99.90;;;;;;4970637;28;20049;-75
2024/01/26 07:14:47;;;;;;;2.03;1.35;;;11.30;99.90;;;;;;4968507;28;20461;-77
2024/01/26 07:17:13;;;;;;;2.63;1.50;;;11.40;99.90;;;;;;4978808;28;20037;-78
2024/01/26 07:19:39;;;;;;;2.17;1.48;;;11.40;99.90;;;;;;4964043;28;20113;-79
2024/01/26 07:22:05;;;;;;;1.90;1.33;;;11.40;99.90;;;;;;4979720;28;20034;-79
2024/01/26 07:24:33;;;;;;;3.25;1.50;;;11.30;99.90;;;;;;4985829;28;20086;-80
2024/01/26 07:26:59;;;;;;;3.00;1.45;;;11.40;99.90;;;;;;4982527;28;20046;-80
2024/01/26 07:29:25;;;;;;;1.70;0.90;;;11.40;99.90;;;;;;4967240;28;20121;-81
2024/01/26 07:31:51;;;;;;;1.80;0.90;;;11.30;99.90;;;;;;4979934;28;20125;-79
2024/01/26 07:34:16;;;;;;;1.42;0.75;;;11.40;99.90;;;;;;4967112;28;20525;-77
2024/01/26 07:36:42;;;;;;;1.35;1.10;;;11.30;99.90;;;;;;4978804;28;20526;-79
2024/01/26 07:39:09;;;;;;;2.70;1.20;;;11.40;99.90;;;;;;4982593;28;20034;-78
2024/01/26 07:41:35;;;;;;;2.78;1.50;;;11.40;99.90;;;;;;4980605;28;20097;-78
2024/01/26 07:44:01;;;;;;;1.33;0.60;;;11.40;99.90;;;;;;4984148;28;20053;-80
2024/01/26 07:46:27;;;;;;;1.15;0.88;;;11.40;99.90;;;;;;4962269;28;20035;-79
2024/01/26 07:48:52;;;;;;;4.13;1.20;;;11.30;99.90;;;;;;4980415;28;20098;-78
2024/01/26 07:51:18;;;;;;;1.38;0.80;;;11.40;99.90;;;;;;4981077;28;20118;-77
2024/01/26 07:53:44;;;;;;;1.77;0.93;;;11.40;99.90;;;;;;4957949;28;20459;-77
2024/01/26 07:56:10;;;;;;;1.40;0.45;;;11.40;99.90;;;;;;4987413;28;20108;-78
2024/01/26 07:58:35;;;;;;;1.10;0.60;;;11.40;99.90;;;;;;4969620;28;20141;-79
2024/01/26 08:01:01;;;;;;;1.42;0.70;;;11.50;99.90;;;;;;4992649;28;20047;-78
2024/01/26 08:03:28;;;;;;;0.82;0.63;;;11.50;99.90;;;;;;4981689;28;20050;-76
2024/01/26 08:05:54;;;;;;;0.57;0.55;;;11.50;99.90;;;;;;4992338;28;20148;-76
2024/01/26 08:08:19;;;;;;;0.88;0.60;;;11.50;99.90;;;;;;4978448;28;20055;-76
2024/01/26 08:10:49;;;;;;;1.20;0.93;;;11.50;99.90;;;;;;4978712;28;20050;-76
2024/01/26 08:13:15;;;;;;;1.17;0.55;;;11.50;99.90;;;;;;4980233;28;20043;-78
2024/01/26 08:15:41;;;;;;;0.85;0.45;;;11.50;99.90;;;;;;4983106;28;20046;-78
2024/01/26 08:18:06;;;;;;;1.50;0.73;;;11.50;99.90;;;;;;4980968;28;20042;-78
2024/01/26 08:20:32;;;;;;;0.77;0.43;;;11.50;99.90;;;;;;4983476;28;20418;-76
2024/01/26 08:22:58;;;;;;;1.40;0.55;;;11.60;99.90;;;;;;4982487;28;20043;-78
2024/01/26 08:25:24;;;;;;;1.33;0.43;;;11.60;99.90;;;;;;4985253;28;20074;-78
2024/01/26 08:27:51;;;;;;;1.17;0.52;;;11.60;99.90;;;;;;4973388;28;20089;-78
2024/01/26 08:30:17;;;;;;;2.35;1.17;;;11.60;99.90;;;;;;4982620;28;20043;-78
2024/01/26 08:32:45;;;;;;;0.88;0.60;;;11.60;99.90;;;;;;4975157;28;20046;-76
2024/01/26 08:35:11;;;;;;;5.97;1.17;;;11.60;99.90;;;;;;4985750;28;20490;-76
2024/01/26 08:37:38;;;;;;;1.50;0.90;;;11.70;99.90;;;;;;4959909;28;20078;-77
2024/01/26 08:40:06;;;;;;;1.80;1.17;;;11.70;99.90;;;;;;4984673;28;20117;-75
2024/01/26 08:42:33;;;;;;;2.47;0.88;;;11.70;99.90;;;;;;4983141;28;20049;-76
2024/01/26 08:44:59;;;;;;;2.03;0.98;;;11.70;99.90;;;;;;4985442;28;20093;-77
2024/01/26 08:47:24;;;;;;;2.42;1.60;;;11.70;99.90;;;;;;4985745;28;20038;-77
2024/01/26 08:49:50;;;;;;;1.88;1.00;;;11.70;99.90;;;;;;4957198;28;20039;-77
2024/01/26 08:52:16;;;;;;;1.60;1.27;;;11.80;99.90;;;;;;4964159;28;20468;-77
2024/01/26 08:54:42;;;;;;;1.95;1.38;;;11.70;99.90;;;;;;4980289;28;20050;-77
2024/01/26 08:57:08;;;;;;;1.92;1.42;;;11.70;99.90;;;;;;4984111;28;20039;-77
2024/01/26 08:59:33;;;;;;;1.40;1.05;;;11.70;99.90;;;;;;4985071;28;20050;-76
2024/01/26 09:01:59;;;;;;;3.97;1.70;;;11.80;99.90;;;;;;4983722;28;20054;-77
2024/01/26 09:04:25;;;;;;;2.22;1.83;;;11.70;99.90;;;;;;4988631;28;20038;-77
2024/01/26 09:06:51;;;;;;;2.40;1.25;;;11.80;99.90;;;;;;4984564;28;20197;-77
2024/01/26 09:09:17;;;;;;;4.05;1.63;;;11.80;99.90;;;;;;4983765;28;20557;-78
2024/01/26 09:11:43;;;;;;;3.40;1.58;;;11.80;99.90;;;;;;4971932;28;20038;-78
2024/01/26 09:14:08;;;;;;;6.75;1.38;;;11.80;99.90;;;;;;4977137;28;20505;-77
2024/01/26 09:16:35;;;;;;;1.35;1.00;;;11.90;99.90;;;;;;4969876;28;20042;-78
2024/01/26 09:19:01;;;;;;;1.13;0.75;;;11.80;99.90;;;;;;4962647;28;20478;-77
2024/01/26 09:21:26;;;;;;;1.30;0.90;;;11.90;99.90;;;;;;4977926;28;20046;-77
2024/01/26 09:23:52;;;;;;;3.05;1.15;;;11.80;99.90;;;;;;4976162;28;20038;-76
2024/01/26 09:26:18;;;;;;;0.88;0.52;;;11.80;99.90;;;;;;4979455;28;20078;-76
2024/01/26 09:28:44;;;;;;;1.63;0.60;;;11.80;99.90;;;;;;4978134;28;20046;-75
2024/01/26 09:31:09;;;;;;;0.38;0.15;;;11.70;99.90;;;;;;4981308;28;20133;-77
2024/01/26 09:33:35;;;;;;;0.20;0.20;;;11.50;99.90;;;;;;4984409;28;20466;-76
2024/01/26 09:36:01;;;;;;;2.42;0.10;;;11.20;99.90;;;;;;4984116;28;20046;-78
2024/01/26 09:38:26;;;;;;;2.95;0.40;;;10.80;99.90;;;;;;4961633;28;20038;-78
2024/01/26 09:40:52;;;;;;;0.40;0.10;;;10.50;99.90;;;;;;4970452;28;20026;-79
2024/01/26 09:43:18;;;;;;;1.23;0.10;;;10.40;99.90;;;;;;4982687;28;20093;-81
2024/01/26 09:45:44;;;;;;;5.82;0.20;;;10.20;99.90;;;;;;4967319;28;20053;-77
2024/01/26 09:48:10;;;;;;;0.28;0.03;;;10.20;99.90;;;;;;4985322;28;20073;-79
2024/01/26 09:50:36;;;;;;;0.52;0.17;;;10.00;99.90;;;;;;4973973;28;20088;-80
2024/01/26 09:53:05;;;;;;;4.30;0.43;;;10.10;99.90;;;;;;4988708;28;20102;-80
2024/01/26 09:55:34;;;;;;;1.35;0.03;;;10.10;99.90;;;;;;4977357;28;20031;-80
2024/01/26 09:58:00;;;;;;;1.52;0.13;;;10.00;99.90;;;;;;4968935;28;20094;-80
2024/01/26 10:00:26;;;;;;;0.85;0.30;;;10.00;99.90;;;;;;4984948;28;20046;-80
2024/01/26 10:02:52;;;;;;;0.15;0.03;;;9.90;99.90;;;;;;4966180;28;20038;-81
2024/01/26 10:05:18;;;;;;;1.25;0.30;;;9.90;99.90;;;;;;4983031;28;20171;-79
2024/01/26 10:07:45;;;;;;;0.00;0.00;;;9.80;99.90;;;;;;4975892;28;20108;-80
2024/01/26 10:10:11;;;;;;;4.00;0.35;;;9.70;99.90;;;;;;4966947;28;20050;-81
2024/01/26 10:12:38;;;;;;;4.03;0.22;;;9.70;99.90;;;;;;4992681;28;20038;-79
2024/01/26 10:15:08;;;;;;;7.53;0.80;;;9.70;99.90;;;;;;4978892;28;20463;-81
2024/01/26 10:17:35;;;;;;;0.15;0.10;;;9.60;99.90;;;;;;4958145;28;20034;-79
2024/01/26 10:20:18;;;;;;;1.45;0.20;;;9.60;99.90;;;;;;4977523;28;20081;-80
2024/01/26 10:22:45;;;;;;;0.05;0.00;;;9.50;99.90;;;;;;4961070;28;20117;-79
2024/01/26 10:25:12;;;;;;;1.45;0.10;;;9.50;99.90;;;;;;4963800;28;20109;-80
2024/01/26 10:27:37;;;;;;;0.20;0.10;;;9.50;99.90;;;;;;4978602;28;20502;-80
2024/01/26 10:30:04;;;;;;;1.25;0.38;;;9.50;99.90;;;;;;4979095;28;20189;-80
2024/01/26 10:32:32;;;;;;;3.83;0.40;;;9.40;99.90;;;;;;4979760;28;20092;-79
2024/01/26 10:35:02;;;;;;;0.28;0.22;;;9.40;99.90;;;;;;4956740;28;20057;-81
2024/01/26 10:37:30;;;;;;;2.17;0.10;;;9.40;99.90;;;;;;4983402;28;20471;-77
2024/01/26 10:39:57;;;;;;;2.40;0.75;;;9.40;99.90;;;;;;4981572;28;20489;-79
2024/01/26 10:42:24;;;;;;;4.90;0.57;;;9.30;99.90;;;;;;4998985;28;20565;-78
2024/01/26 10:44:54;;;;;;;0.70;0.32;;;9.40;99.90;;;;;;4966448;28;20052;-78
2024/01/26 10:47:21;;;;;;;0.55;0.25;;;9.30;99.90;;;;;;4981287;28;20046;-76
2024/01/26 10:49:50;;;;;;;0.30;0.20;;;9.40;99.90;;;;;;5002043;28;20135;-78
2024/01/26 10:52:19;;;;;;;1.52;0.28;;;9.30;99.90;;;;;;4962489;28;20084;-79
2024/01/26 10:54:47;;;;;;;5.80;0.28;;;9.30;99.90;;;;;;4984759;28;20039;-78
2024/01/26 10:57:14;;;;;;;0.75;0.20;;;9.40;99.90;;;;;;4982649;28;20048;-78
2024/01/26 10:59:41;;;;;;;0.98;0.20;;;9.40;99.90;;;;;;4964852;28;20059;-76
2024/01/26 11:02:21;;;;;;;5.72;1.27;;;9.30;99.90;;;;;;4979332;28;20043;-76
2024/01/26 11:04:48;;;;;;;5.45;0.57;;;9.30;99.90;;;;;;4986639;28;20046;-76
2024/01/26 11:07:18;;;;;;;0.88;0.20;;;9.40;99.90;;;;;;4991844;28;20049;-75
2024/01/26 11:09:46;;;;;;;0.73;0.32;;;9.30;99.90;;;;;;4986677;28;20042;-76
2024/01/26 11:12:25;;;;;;;1.15;0.43;;;9.30;99.90;;;;;;4995717;28;20049;-77
2024/01/26 11:15:08;;;;;;;2.45;0.28;;;9.30;99.90;;;;;;4982099;28;20042;-76
2024/01/26 11:17:54;;;;;;;0.65;0.65;;;9.30;99.90;;;;;;4974093;28;20046;-76
2024/01/26 11:20:26;;;;;;;1.27;0.77;;;9.30;99.90;;;;;;4969569;28;20074;-76
2024/01/26 11:23:09;;;;;;;0.10;0.00;;;9.20;99.90;;;;;;4964176;28;20137;-77
2024/01/26 11:25:40;;;;;;;3.28;0.38;;;9.20;99.90;;;;;;4983956;28;20034;-77
2024/01/26 11:28:07;;;;;;;0.60;0.25;;;9.10;99.90;;;;;;4978289;28;20070;-77
2024/01/26 11:30:34;;;;;;;3.20;0.10;;;9.10;99.90;;;;;;4967223;28;20038;-78
2024/01/26 11:33:01;;;;;;;6.40;0.45;;;9.10;99.90;;;;;;4979869;28;20171;-77
2024/01/26 11:35:27;;;;;;;12.32;1.10;;;9.10;99.90;;;;;;4987045;28;20089;-77
2024/01/26 11:37:55;;;;;;;0.45;0.25;;;9.10;99.90;;;;;;4985847;28;20039;-75
2024/01/26 11:40:23;;;;;;;3.13;0.35;;;9.00;99.90;;;;;;4982825;28;20039;-77
2024/01/26 11:42:50;;;;;;;1.70;0.30;;;9.00;99.90;;;;;;4981283;28;20039;-78
2024/01/26 11:45:37;;;;;;;6.25;0.85;;;9.00;99.90;;;;;;4968737;28;20035;-77
2024/01/26 11:48:07;;;;;;;7.93;1.55;;;8.90;99.90;;;;;;4980410;28;20043;-76
2024/01/26 11:50:33;;;;;;;0.55;0.17;;;8.90;99.90;;;;;;4985585;28;20130;-77
2024/01/26 11:52:58;;;;;;;3.90;0.52;;;8.90;99.90;;;;;;4998572;28;20081;-77
2024/01/26 11:55:25;;;;;;;7.20;0.73;;;9.00;99.90;;;;;;4955179;28;20493;-79
2024/01/26 11:57:54;;;;;;;3.92;0.75;;;8.90;99.90;;;;;;4972987;28;20034;-76
2024/01/26 12:00:20;;;;;;;1.15;0.35;;;8.90;99.90;;;;;;4961948;28;20649;-77
2024/01/26 12:02:45;;;;;;;1.92;0.30;;;8.90;99.90;;;;;;4976047;28;20038;-75
2024/01/26 12:05:11;;;;;;;5.80;0.50;;;8.80;99.90;;;;;;4978630;28;20035;-78
2024/01/26 12:07:37;;;;;;;2.50;0.68;;;8.80;99.90;;;;;;4973143;28;20029;-77
2024/01/26 12:10:04;;;;;;;3.20;0.45;;;8.80;99.90;;;;;;4980004;28;20038;-78
2024/01/26 12:12:31;;;;;;;4.07;0.40;;;8.80;99.90;;;;;;4964509;28;20049;-77
2024/01/26 12:14:56;;;;;;;3.70;0.40;;;8.80;99.90;;;;;;4979195;28;20141;-78
2024/01/26 12:17:22;;;;;;;2.90;0.65;;;8.80;99.90;;;;;;4983897;28;20140;-77
2024/01/26 12:19:49;;;;;;;3.75;0.65;;;8.70;99.90;;;;;;4980253;28;20080;-77
2024/01/26 12:22:15;;;;;;;1.30;0.60;;;8.70;99.90;;;;;;4980868;28;20117;-77
2024/01/26 12:24:40;;;;;;;8.27;0.88;;;8.60;99.90;;;;;;4980208;28;20279;-77
2024/01/26 12:27:07;;;;;;;5.55;0.47;;;8.70;99.90;;;;;;4984443;28;20052;-78
2024/01/26 12:29:33;;;;;;;4.88;0.40;;;8.60;99.90;;;;;;4967627;28;20148;-77
2024/01/26 12:32:04;;;;;;;4.65;0.30;;;8.60;99.90;;;;;;4986982;28;20046;-84
2024/01/26 12:34:30;;;;;;;1.20;0.20;;;8.70;99.90;;;;;;4983508;28;20059;-76
2024/01/26 12:37:06;;;;;;;2.00;0.30;;;8.70;99.90;;;;;;4989023;28;20038;-76
2024/01/26 12:39:32;;;;;;;7.03;0.73;;;8.70;99.90;;;;;;4972256;28;20501;-75
2024/01/26 12:41:58;;;;;;;12.55;0.52;;;8.70;99.90;;;;;;4983971;28;20113;-77
2024/01/26 12:44:31;;;;;;;4.85;0.50;;;8.70;99.90;;;;;;4986970;28;20093;-77
2024/01/26 12:46:57;;;;;;;11.20;1.65;;;8.70;99.90;;;;;;4960722;28;20042;-78